Terminal Aerodrome Forecast
Issued by NWS

Current Version | Previous Version | Text Only | Print | Product List | Glossary On
Versions: 1 2 3 4 5 6 7 8 9 10 11 12 13 14
784
FTUS45 KFGZ 052353 AAA
TAFSEZ
TAF AMD
KSEZ 052353Z 0600/0624 19020G30KT P6SM SCT250
     FM060300 21010KT P6SM SCT250
     FM061600 19015G25KT P6SM SCT100 OVC250
     FM062000 19017G27KT P6SM SCT060 BKN090
      AMD NOT SKED=

USA.gov is the U.S. government's official web portal to all federal, state and local government web resources and services.